sensor_id;sensor_type;location;lat;lon;timestamp;temperature;humidity
35363;DHT22;21463;47.480;8.214;2024-03-07T00:00:28;20.90;37.60
35363;DHT22;21463;47.480;8.214;2024-03-07T00:01:30;20.90;37.50
35363;DHT22;21463;47.480;8.214;2024-03-07T00:02:34;20.90;37.60
35363;DHT22;21463;47.480;8.214;2024-03-07T00:03:36;20.90;37.60
35363;DHT22;21463;47.480;8.214;2024-03-07T00:04:39;20.90;37.60
35363;DHT22;21463;47.480;8.214;2024-03-07T00:05:42;20.90;37.60
35363;DHT22;21463;47.480;8.214;2024-03-07T00:06:45;20.90;37.50
35363;DHT22;21463;47.480;8.214;2024-03-07T00:07:47;20.90;37.60
35363;DHT22;21463;47.480;8.214;2024-03-07T00:08:50;20.90;37.50
35363;DHT22;21463;47.480;8.214;2024-03-07T00:09:53;20.90;37.60
35363;DHT22;21463;47.480;8.214;2024-03-07T00:10:56;20.90;37.60
35363;DHT22;21463;47.480;8.214;2024-03-07T00:11:59;20.90;37.60
35363;DHT22;21463;47.480;8.214;2024-03-07T00:13:01;20.90;37.60
35363;DHT22;21463;47.480;8.214;2024-03-07T00:14:05;20.90;37.60
35363;DHT22;21463;47.480;8.214;2024-03-07T00:15:10;20.90;37.60
35363;DHT22;21463;47.480;8.214;2024-03-07T00:16:13;20.90;37.60
35363;DHT22;21463;47.480;8.214;2024-03-07T00:17:16;20.90;37.60
35363;DHT22;21463;47.480;8.214;2024-03-07T00:18:19;20.90;37.60
35363;DHT22;21463;47.480;8.214;2024-03-07T00:19:21;20.90;37.60
35363;DHT22;21463;47.480;8.214;2024-03-07T00:20:27;20.90;37.60
35363;DHT22;21463;47.480;8.214;2024-03-07T00:21:33;20.90;37.60
35363;DHT22;21463;47.480;8.214;2024-03-07T00:22:36;20.90;37.60
35363;DHT22;21463;47.480;8.214;2024-03-07T00:23:38;20.90;37.60
35363;DHT22;21463;47.480;8.214;2024-03-07T00:24:41;20.90;37.60
35363;DHT22;21463;47.480;8.214;2024-03-07T00:25:45;20.90;37.60
35363;DHT22;21463;47.480;8.214;2024-03-07T00:26:47;20.90;37.60
35363;DHT22;21463;47.480;8.214;2024-03-07T00:27:57;20.90;37.60
35363;DHT22;21463;47.480;8.214;2024-03-07T00:29:04;20.90;37.60
35363;DHT22;21463;47.480;8.214;2024-03-07T00:30:09;20.80;37.60
35363;DHT22;21463;47.480;8.214;2024-03-07T00:31:11;20.90;37.60
35363;DHT22;21463;47.480;8.214;2024-03-07T00:32:17;20.90;37.60
35363;DHT22;21463;47.480;8.214;2024-03-07T00:33:20;20.90;37.60
35363;DHT22;21463;47.480;8.214;2024-03-07T00:34:24;20.90;37.60
35363;DHT22;21463;47.480;8.214;2024-03-07T00:35:28;20.90;37.60
35363;DHT22;21463;47.480;8.214;2024-03-07T00:36:31;20.80;37.60
35363;DHT22;21463;47.480;8.214;2024-03-07T00:37:34;20.90;37.60
35363;DHT22;21463;47.480;8.214;2024-03-07T00:38:37;20.90;37.60
35363;DHT22;21463;47.480;8.214;2024-03-07T00:39:40;20.90;37.60
35363;DHT22;21463;47.480;8.214;2024-03-07T00:40:43;20.90;37.60
35363;DHT22;21463;47.480;8.214;2024-03-07T00:41:45;20.90;37.60
35363;DHT22;21463;47.480;8.214;2024-03-07T00:42:50;20.90;37.60
35363;DHT22;21463;47.480;8.214;2024-03-07T00:43:53;20.80;37.60
35363;DHT22;21463;47.480;8.214;2024-03-07T00:44:56;20.90;37.60
35363;DHT22;21463;47.480;8.214;2024-03-07T00:45:59;20.90;37.60
35363;DHT22;21463;47.480;8.214;2024-03-07T00:47:04;20.80;37.60
35363;DHT22;21463;47.480;8.214;2024-03-07T00:48:07;20.90;37.60
35363;DHT22;21463;47.480;8.214;2024-03-07T00:49:09;20.90;37.70
35363;DHT22;21463;47.480;8.214;2024-03-07T00:50:12;20.80;38.20
35363;DHT22;21463;47.480;8.214;2024-03-07T00:51:15;20.90;37.60
35363;DHT22;21463;47.480;8.214;2024-03-07T00:52:18;20.90;37.70
35363;DHT22;21463;47.480;8.214;2024-03-07T00:53:20;20.80;37.60
35363;DHT22;21463;47.480;8.214;2024-03-07T00:54:23;20.90;37.70
35363;DHT22;21463;47.480;8.214;2024-03-07T00:55:27;20.90;37.70
35363;DHT22;21463;47.480;8.214;2024-03-07T00:56:29;20.90;37.70
35363;DHT22;21463;47.480;8.214;2024-03-07T00:57:32;20.80;37.60
35363;DHT22;21463;47.480;8.214;2024-03-07T00:58:37;20.90;37.70
35363;DHT22;21463;47.480;8.214;2024-03-07T00:59:40;20.90;37.70
35363;DHT22;21463;47.480;8.214;2024-03-07T01:00:43;20.90;37.70
35363;DHT22;21463;47.480;8.214;2024-03-07T01:01:45;20.80;37.60
35363;DHT22;21463;47.480;8.214;2024-03-07T01:02:56;20.90;37.70
35363;DHT22;21463;47.480;8.214;2024-03-07T01:04:00;20.90;37.70
35363;DHT22;21463;47.480;8.214;2024-03-07T01:05:05;20.90;37.70
35363;DHT22;21463;47.480;8.214;2024-03-07T01:06:15;20.90;37.70
35363;DHT22;21463;47.480;8.214;2024-03-07T01:07:17;20.90;37.70
35363;DHT22;21463;47.480;8.214;2024-03-07T01:08:20;20.80;37.70
35363;DHT22;21463;47.480;8.214;2024-03-07T01:09:25;20.80;37.70
35363;DHT22;21463;47.480;8.214;2024-03-07T01:10:27;20.90;37.70
35363;DHT22;21463;47.480;8.214;2024-03-07T01:11:30;20.90;37.70
35363;DHT22;21463;47.480;8.214;2024-03-07T01:12:36;20.80;37.70
35363;DHT22;21463;47.480;8.214;2024-03-07T01:13:39;20.80;37.70
35363;DHT22;21463;47.480;8.214;2024-03-07T01:14:44;20.80;38.30
35363;DHT22;21463;47.480;8.214;2024-03-07T01:15:48;20.80;37.70
35363;DHT22;21463;47.480;8.214;2024-03-07T01:16:51;20.90;37.70
35363;DHT22;21463;47.480;8.214;2024-03-07T01:17:53;20.80;37.70
35363;DHT22;21463;47.480;8.214;2024-03-07T01:18:56;20.90;37.80
35363;DHT22;21463;47.480;8.214;2024-03-07T01:19:59;20.90;37.80
35363;DHT22;21463;47.480;8.214;2024-03-07T01:21:02;20.80;37.70
35363;DHT22;21463;47.480;8.214;2024-03-07T01:22:06;20.90;37.70
35363;DHT22;21463;47.480;8.214;2024-03-07T01:23:08;20.80;37.70
35363;DHT22;21463;47.480;8.214;2024-03-07T01:24:11;20.80;37.70
35363;DHT22;21463;47.480;8.214;2024-03-07T01:25:14;20.90;37.80
35363;DHT22;21463;47.480;8.214;2024-03-07T01:26:16;20.90;37.80
35363;DHT22;21463;47.480;8.214;2024-03-07T01:27:22;20.80;37.70
35363;DHT22;21463;47.480;8.214;2024-03-07T01:28:29;20.90;37.80
35363;DHT22;21463;47.480;8.214;2024-03-07T01:29:35;20.90;37.80
35363;DHT22;21463;47.480;8.214;2024-03-07T01:30:37;20.90;37.80
35363;DHT22;21463;47.480;8.214;2024-03-07T01:31:40;20.80;37.70
35363;DHT22;21463;47.480;8.214;2024-03-07T01:32:43;20.90;37.80
35363;DHT22;21463;47.480;8.214;2024-03-07T01:33:45;20.80;37.70
35363;DHT22;21463;47.480;8.214;2024-03-07T01:34:48;20.90;38.40
35363;DHT22;21463;47.480;8.214;2024-03-07T01:35:50;20.90;37.80
35363;DHT22;21463;47.480;8.214;2024-03-07T01:36:53;20.90;37.80
35363;DHT22;21463;47.480;8.214;2024-03-07T01:37:56;20.80;37.70
35363;DHT22;21463;47.480;8.214;2024-03-07T01:38:59;20.90;37.80
35363;DHT22;21463;47.480;8.214;2024-03-07T01:40:03;20.90;37.80
35363;DHT22;21463;47.480;8.214;2024-03-07T01:41:05;20.80;37.70
35363;DHT22;21463;47.480;8.214;2024-03-07T01:42:08;20.80;37.70
35363;DHT22;21463;47.480;8.214;2024-03-07T01:43:11;20.80;37.70
35363;DHT22;21463;47.480;8.214;2024-03-07T01:44:14;20.80;37.70
35363;DHT22;21463;47.480;8.214;2024-03-07T01:45:17;20.80;38.30
35363;DHT22;21463;47.480;8.214;2024-03-07T01:46:22;20.90;37.80
35363;DHT22;21463;47.480;8.214;2024-03-07T01:47:24;20.80;37.80
35363;DHT22;21463;47.480;8.214;2024-03-07T01:48:28;20.80;37.70
35363;DHT22;21463;47.480;8.214;2024-03-07T01:49:32;20.90;37.80
35363;DHT22;21463;47.480;8.214;2024-03-07T01:50:40;20.80;37.80
35363;DHT22;21463;47.480;8.214;2024-03-07T01:51:43;20.90;37.80
35363;DHT22;21463;47.480;8.214;2024-03-07T01:52:46;20.80;37.80
35363;DHT22;21463;47.480;8.214;2024-03-07T01:53:48;20.80;37.80
35363;DHT22;21463;47.480;8.214;2024-03-07T01:54:52;20.80;37.80
35363;DHT22;21463;47.480;8.214;2024-03-07T01:55:55;20.80;37.80
35363;DHT22;21463;47.480;8.214;2024-03-07T01:56:59;20.90;37.80
35363;DHT22;21463;47.480;8.214;2024-03-07T01:58:03;20.90;37.80
35363;DHT22;21463;47.480;8.214;2024-03-07T01:59:07;20.80;37.80
35363;DHT22;21463;47.480;8.214;2024-03-07T02:00:10;20.80;37.80
35363;DHT22;21463;47.480;8.214;2024-03-07T02:01:13;20.90;37.80
35363;DHT22;21463;47.480;8.214;2024-03-07T02:02:20;20.80;37.80
35363;DHT22;21463;47.480;8.214;2024-03-07T02:03:23;20.80;37.80
35363;DHT22;21463;47.480;8.214;2024-03-07T02:04:25;20.80;37.80
35363;DHT22;21463;47.480;8.214;2024-03-07T02:05:28;20.80;37.80
35363;DHT22;21463;47.480;8.214;2024-03-07T02:06:33;20.80;37.80
35363;DHT22;21463;47.480;8.214;2024-03-07T02:07:36;20.90;37.90
35363;DHT22;21463;47.480;8.214;2024-03-07T02:08:39;20.90;37.90
35363;DHT22;21463;47.480;8.214;2024-03-07T02:09:42;20.80;37.80
35363;DHT22;21463;47.480;8.214;2024-03-07T02:10:44;20.80;37.90
35363;DHT22;21463;47.480;8.214;2024-03-07T02:11:48;20.90;37.90
35363;DHT22;21463;47.480;8.214;2024-03-07T02:12:55;20.80;37.80
35363;DHT22;21463;47.480;8.214;2024-03-07T02:13:58;20.80;37.90
35363;DHT22;21463;47.480;8.214;2024-03-07T02:15:01;20.90;37.90
35363;DHT22;21463;47.480;8.214;2024-03-07T02:16:09;20.80;37.80
35363;DHT22;21463;47.480;8.214;2024-03-07T02:17:11;20.90;37.90
35363;DHT22;21463;47.480;8.214;2024-03-07T02:18:14;20.90;37.90
35363;DHT22;21463;47.480;8.214;2024-03-07T02:19:17;20.90;37.90
35363;DHT22;21463;47.480;8.214;2024-03-07T02:20:20;20.80;37.90
35363;DHT22;21463;47.480;8.214;2024-03-07T02:21:23;20.80;37.80
35363;DHT22;21463;47.480;8.214;2024-03-07T02:22:26;20.80;37.90
35363;DHT22;21463;47.480;8.214;2024-03-07T02:23:28;20.80;37.90
35363;DHT22;21463;47.480;8.214;2024-03-07T02:24:31;20.80;37.90
35363;DHT22;21463;47.480;8.214;2024-03-07T02:25:34;20.80;37.90
35363;DHT22;21463;47.480;8.214;2024-03-07T02:26:40;20.90;37.90
35363;DHT22;21463;47.480;8.214;2024-03-07T02:27:45;20.80;37.90
35363;DHT22;21463;47.480;8.214;2024-03-07T02:28:48;20.80;37.90
35363;DHT22;21463;47.480;8.214;2024-03-07T02:29:50;20.80;37.90
35363;DHT22;21463;47.480;8.214;2024-03-07T02:30:53;20.80;37.90
35363;DHT22;21463;47.480;8.214;2024-03-07T02:31:56;20.80;37.90
35363;DHT22;21463;47.480;8.214;2024-03-07T02:32:59;20.80;37.90
35363;DHT22;21463;47.480;8.214;2024-03-07T02:34:09;20.80;37.90
35363;DHT22;21463;47.480;8.214;2024-03-07T02:35:11;20.80;37.90
35363;DHT22;21463;47.480;8.214;2024-03-07T02:36:14;20.90;37.90
35363;DHT22;21463;47.480;8.214;2024-03-07T02:37:17;20.80;37.90
35363;DHT22;21463;47.480;8.214;2024-03-07T02:38:22;20.90;38.00
35363;DHT22;21463;47.480;8.214;2024-03-07T02:39:25;20.90;37.90
35363;DHT22;21463;47.480;8.214;2024-03-07T02:40:28;20.90;38.00
35363;DHT22;21463;47.480;8.214;2024-03-07T02:41:33;20.80;37.90
35363;DHT22;21463;47.480;8.214;2024-03-07T02:42:36;20.90;38.00
35363;DHT22;21463;47.480;8.214;2024-03-07T02:43:39;20.90;38.00
35363;DHT22;21463;47.480;8.214;2024-03-07T02:44:44;20.80;37.90
35363;DHT22;21463;47.480;8.214;2024-03-07T02:45:49;20.80;37.90
35363;DHT22;21463;47.480;8.214;2024-03-07T02:46:55;20.90;38.00
35363;DHT22;21463;47.480;8.214;2024-03-07T02:47:57;20.80;37.90
35363;DHT22;21463;47.480;8.214;2024-03-07T02:49:00;20.80;37.90
35363;DHT22;21463;47.480;8.214;2024-03-07T02:50:03;20.80;37.90
35363;DHT22;21463;47.480;8.214;2024-03-07T02:51:06;20.80;37.90
35363;DHT22;21463;47.480;8.214;2024-03-07T02:52:11;20.80;37.90
35363;DHT22;21463;47.480;8.214;2024-03-07T02:53:14;20.90;38.00
35363;DHT22;21463;47.480;8.214;2024-03-07T02:54:17;20.80;38.00
35363;DHT22;21463;47.480;8.214;2024-03-07T02:55:20;20.90;38.00
35363;DHT22;21463;47.480;8.214;2024-03-07T02:56:23;20.80;37.90
35363;DHT22;21463;47.480;8.214;2024-03-07T02:57:25;20.80;37.90
35363;DHT22;21463;47.480;8.214;2024-03-07T02:58:28;20.80;38.00
35363;DHT22;21463;47.480;8.214;2024-03-07T02:59:31;20.80;38.00
35363;DHT22;21463;47.480;8.214;2024-03-07T03:00:34;20.90;38.00
35363;DHT22;21463;47.480;8.214;2024-03-07T03:01:37;20.90;38.00
35363;DHT22;21463;47.480;8.214;2024-03-07T03:02:39;20.90;38.00
35363;DHT22;21463;47.480;8.214;2024-03-07T03:03:42;20.80;38.00
35363;DHT22;21463;47.480;8.214;2024-03-07T03:04:45;20.80;38.00
35363;DHT22;21463;47.480;8.214;2024-03-07T03:05:47;20.80;38.00
35363;DHT22;21463;47.480;8.214;2024-03-07T03:06:50;20.80;38.00
35363;DHT22;21463;47.480;8.214;2024-03-07T03:07:53;20.80;38.00
35363;DHT22;21463;47.480;8.214;2024-03-07T03:08:56;20.80;38.00
35363;DHT22;21463;47.480;8.214;2024-03-07T03:09:59;20.80;38.00
35363;DHT22;21463;47.480;8.214;2024-03-07T03:11:03;20.80;38.00
35363;DHT22;21463;47.480;8.214;2024-03-07T03:12:06;20.90;38.10
35363;DHT22;21463;47.480;8.214;2024-03-07T03:13:11;20.80;38.60
35363;DHT22;21463;47.480;8.214;2024-03-07T03:14:14;20.80;38.00
35363;DHT22;21463;47.480;8.214;2024-03-07T03:15:20;20.80;38.00
35363;DHT22;21463;47.480;8.214;2024-03-07T03:16:28;20.80;38.00
35363;DHT22;21463;47.480;8.214;2024-03-07T03:17:49;20.80;38.00
35363;DHT22;21463;47.480;8.214;2024-03-07T03:18:52;20.80;38.00
35363;DHT22;21463;47.480;8.214;2024-03-07T03:19:55;20.90;38.10
35363;DHT22;21463;47.480;8.214;2024-03-07T03:20:58;20.80;38.00
35363;DHT22;21463;47.480;8.214;2024-03-07T03:22:00;20.80;38.00
35363;DHT22;21463;47.480;8.214;2024-03-07T03:23:03;20.80;38.00
35363;DHT22;21463;47.480;8.214;2024-03-07T03:24:09;20.80;38.00
35363;DHT22;21463;47.480;8.214;2024-03-07T03:25:12;20.80;38.00
35363;DHT22;21463;47.480;8.214;2024-03-07T03:26:16;20.80;38.00
35363;DHT22;21463;47.480;8.214;2024-03-07T03:27:18;20.80;38.00
35363;DHT22;21463;47.480;8.214;2024-03-07T03:28:24;20.80;38.00
35363;DHT22;21463;47.480;8.214;2024-03-07T03:29:26;20.80;38.00
35363;DHT22;21463;47.480;8.214;2024-03-07T03:30:31;20.80;38.00
35363;DHT22;21463;47.480;8.214;2024-03-07T03:31:35;20.80;38.00
35363;DHT22;21463;47.480;8.214;2024-03-07T03:32:38;20.80;38.10
35363;DHT22;21463;47.480;8.214;2024-03-07T03:33:40;20.80;38.10
35363;DHT22;21463;47.480;8.214;2024-03-07T03:34:43;20.80;38.00
35363;DHT22;21463;47.480;8.214;2024-03-07T03:35:46;20.80;38.10
35363;DHT22;21463;47.480;8.214;2024-03-07T03:36:48;20.90;38.10
35363;DHT22;21463;47.480;8.214;2024-03-07T03:37:51;20.80;38.00
35363;DHT22;21463;47.480;8.214;2024-03-07T03:38:54;20.80;38.00
35363;DHT22;21463;47.480;8.214;2024-03-07T03:39:56;20.80;38.00
35363;DHT22;21463;47.480;8.214;2024-03-07T03:40:59;20.80;38.00
35363;DHT22;21463;47.480;8.214;2024-03-07T03:42:01;20.80;38.00
35363;DHT22;21463;47.480;8.214;2024-03-07T03:43:06;20.80;38.00
35363;DHT22;21463;47.480;8.214;2024-03-07T03:44:11;20.80;38.00
35363;DHT22;21463;47.480;8.214;2024-03-07T03:45:14;20.80;38.10
35363;DHT22;21463;47.480;8.214;2024-03-07T03:46:25;20.80;38.10
35363;DHT22;21463;47.480;8.214;2024-03-07T03:47:27;20.80;38.10
35363;DHT22;21463;47.480;8.214;2024-03-07T03:48:30;20.80;38.10
35363;DHT22;21463;47.480;8.214;2024-03-07T03:49:33;20.80;38.10
35363;DHT22;21463;47.480;8.214;2024-03-07T03:50:35;20.80;38.10
35363;DHT22;21463;47.480;8.214;2024-03-07T03:51:38;20.80;38.10
35363;DHT22;21463;47.480;8.214;2024-03-07T03:52:41;20.80;38.10
35363;DHT22;21463;47.480;8.214;2024-03-07T03:53:43;20.80;38.10
35363;DHT22;21463;47.480;8.214;2024-03-07T03:54:46;20.80;38.10
35363;DHT22;21463;47.480;8.214;2024-03-07T03:55:50;20.80;38.10
35363;DHT22;21463;47.480;8.214;2024-03-07T03:56:52;20.80;38.10
35363;DHT22;21463;47.480;8.214;2024-03-07T03:57:55;20.80;38.10
35363;DHT22;21463;47.480;8.214;2024-03-07T03:58:57;20.80;38.10
35363;DHT22;21463;47.480;8.214;2024-03-07T04:00:00;20.90;38.20
35363;DHT22;21463;47.480;8.214;2024-03-07T04:01:05;20.80;38.10
35363;DHT22;21463;47.480;8.214;2024-03-07T04:02:10;20.80;38.10
35363;DHT22;21463;47.480;8.214;2024-03-07T04:03:13;20.80;38.10
35363;DHT22;21463;47.480;8.214;2024-03-07T04:04:18;20.80;38.10
35363;DHT22;21463;47.480;8.214;2024-03-07T04:05:23;20.80;38.10
35363;DHT22;21463;47.480;8.214;2024-03-07T04:06:26;20.80;38.10
35363;DHT22;21463;47.480;8.214;2024-03-07T04:07:29;20.80;38.10
35363;DHT22;21463;47.480;8.214;2024-03-07T04:08:33;20.80;38.10
35363;DHT22;21463;47.480;8.214;2024-03-07T04:09:43;20.80;38.10
35363;DHT22;21463;47.480;8.214;2024-03-07T04:10:46;20.80;38.10
35363;DHT22;21463;47.480;8.214;2024-03-07T04:11:48;20.80;38.10
35363;DHT22;21463;47.480;8.214;2024-03-07T04:12:52;20.80;38.10
35363;DHT22;21463;47.480;8.214;2024-03-07T04:13:55;20.80;38.10
35363;DHT22;21463;47.480;8.214;2024-03-07T04:14:58;20.80;38.10
35363;DHT22;21463;47.480;8.214;2024-03-07T04:16:00;20.80;38.10
35363;DHT22;21463;47.480;8.214;2024-03-07T04:17:03;20.80;38.10
35363;DHT22;21463;47.480;8.214;2024-03-07T04:18:06;20.80;38.10
35363;DHT22;21463;47.480;8.214;2024-03-07T04:19:09;20.80;38.10
35363;DHT22;21463;47.480;8.214;2024-03-07T04:20:12;20.80;38.70
35363;DHT22;21463;47.480;8.214;2024-03-07T04:21:16;20.80;38.10
35363;DHT22;21463;47.480;8.214;2024-03-07T04:22:19;20.80;38.10
35363;DHT22;21463;47.480;8.214;2024-03-07T04:23:21;20.80;38.20
35363;DHT22;21463;47.480;8.214;2024-03-07T04:24:24;20.80;38.20
35363;DHT22;21463;47.480;8.214;2024-03-07T04:25:26;20.80;38.20
35363;DHT22;21463;47.480;8.214;2024-03-07T04:26:30;20.80;38.20
35363;DHT22;21463;47.480;8.214;2024-03-07T04:27:34;20.80;38.20
35363;DHT22;21463;47.480;8.214;2024-03-07T04:28:42;20.80;38.10
35363;DHT22;21463;47.480;8.214;2024-03-07T04:29:44;20.80;38.20
35363;DHT22;21463;47.480;8.214;2024-03-07T04:30:50;20.80;38.10
35363;DHT22;21463;47.480;8.214;2024-03-07T04:31:58;20.80;38.10
35363;DHT22;21463;47.480;8.214;2024-03-07T04:33:01;20.80;38.20
35363;DHT22;21463;47.480;8.214;2024-03-07T04:34:04;20.80;38.20
35363;DHT22;21463;47.480;8.214;2024-03-07T04:35:07;20.80;38.20
35363;DHT22;21463;47.480;8.214;2024-03-07T04:36:10;20.80;38.10
35363;DHT22;21463;47.480;8.214;2024-03-07T04:37:15;20.80;38.20
35363;DHT22;21463;47.480;8.214;2024-03-07T04:38:17;20.80;38.20
35363;DHT22;21463;47.480;8.214;2024-03-07T04:39:20;20.80;38.20
35363;DHT22;21463;47.480;8.214;2024-03-07T04:40:49;20.80;38.20
35363;DHT22;21463;47.480;8.214;2024-03-07T04:41:51;20.80;38.20
35363;DHT22;21463;47.480;8.214;2024-03-07T04:42:59;20.80;38.20
35363;DHT22;21463;47.480;8.214;2024-03-07T04:44:02;20.80;38.20
35363;DHT22;21463;47.480;8.214;2024-03-07T04:45:05;20.80;38.10
35363;DHT22;21463;47.480;8.214;2024-03-07T04:46:07;20.80;38.10
35363;DHT22;21463;47.480;8.214;2024-03-07T04:47:10;20.80;38.20
35363;DHT22;21463;47.480;8.214;2024-03-07T04:48:13;20.80;38.20
35363;DHT22;21463;47.480;8.214;2024-03-07T04:49:17;20.80;38.20
35363;DHT22;21463;47.480;8.214;2024-03-07T04:50:19;20.80;38.10
35363;DHT22;21463;47.480;8.214;2024-03-07T04:51:22;20.80;38.10
35363;DHT22;21463;47.480;8.214;2024-03-07T04:52:25;20.80;38.20
35363;DHT22;21463;47.480;8.214;2024-03-07T04:53:27;20.80;38.20
35363;DHT22;21463;47.480;8.214;2024-03-07T04:54:31;20.80;38.20
35363;DHT22;21463;47.480;8.214;2024-03-07T04:55:36;20.80;38.20
35363;DHT22;21463;47.480;8.214;2024-03-07T04:56:39;20.80;38.10
35363;DHT22;21463;47.480;8.214;2024-03-07T04:57:45;20.80;38.10
35363;DHT22;21463;47.480;8.214;2024-03-07T04:58:51;20.80;38.10
35363;DHT22;21463;47.480;8.214;2024-03-07T04:59:56;20.80;38.10
35363;DHT22;21463;47.480;8.214;2024-03-07T05:00:59;20.90;38.20
35363;DHT22;21463;47.480;8.214;2024-03-07T05:02:01;20.80;38.20
35363;DHT22;21463;47.480;8.214;2024-03-07T05:03:04;20.80;38.20
35363;DHT22;21463;47.480;8.214;2024-03-07T05:04:07;20.80;38.20
35363;DHT22;21463;47.480;8.214;2024-03-07T05:05:10;20.80;38.20
35363;DHT22;21463;47.480;8.214;2024-03-07T05:06:13;20.80;38.20
35363;DHT22;21463;47.480;8.214;2024-03-07T05:07:15;20.80;38.20
35363;DHT22;21463;47.480;8.214;2024-03-07T05:08:18;20.80;38.20
35363;DHT22;21463;47.480;8.214;2024-03-07T05:09:20;20.80;38.10
35363;DHT22;21463;47.480;8.214;2024-03-07T05:10:27;20.80;38.10
35363;DHT22;21463;47.480;8.214;2024-03-07T05:11:33;20.80;38.10
35363;DHT22;21463;47.480;8.214;2024-03-07T05:12:36;20.80;38.10
35363;DHT22;21463;47.480;8.214;2024-03-07T05:13:40;20.80;38.20
35363;DHT22;21463;47.480;8.214;2024-03-07T05:14:44;20.80;38.10
35363;DHT22;21463;47.480;8.214;2024-03-07T05:15:51;20.80;38.10
35363;DHT22;21463;47.480;8.214;2024-03-07T05:16:53;20.80;38.10
35363;DHT22;21463;47.480;8.214;2024-03-07T05:18:13;20.80;38.10
35363;DHT22;21463;47.480;8.214;2024-03-07T05:19:17;20.80;38.20
35363;DHT22;21463;47.480;8.214;2024-03-07T05:20:20;20.80;38.10
35363;DHT22;21463;47.480;8.214;2024-03-07T05:21:22;20.80;38.10
35363;DHT22;21463;47.480;8.214;2024-03-07T05:22:41;20.80;38.10
35363;DHT22;21463;47.480;8.214;2024-03-07T05:23:53;20.80;38.10
35363;DHT22;21463;47.480;8.214;2024-03-07T05:24:56;20.80;38.20
35363;DHT22;21463;47.480;8.214;2024-03-07T05:26:01;20.80;38.10
35363;DHT22;21463;47.480;8.214;2024-03-07T05:27:03;20.80;38.10
35363;DHT22;21463;47.480;8.214;2024-03-07T05:28:06;20.80;38.10
35363;DHT22;21463;47.480;8.214;2024-03-07T05:29:10;20.90;38.10
35363;DHT22;21463;47.480;8.214;2024-03-07T05:30:13;20.80;38.10
35363;DHT22;21463;47.480;8.214;2024-03-07T05:31:18;20.80;38.10
35363;DHT22;21463;47.480;8.214;2024-03-07T05:33:26;20.80;38.10
35363;DHT22;21463;47.480;8.214;2024-03-07T05:34:30;20.80;38.10
35363;DHT22;21463;47.480;8.214;2024-03-07T05:35:35;20.80;38.10
35363;DHT22;21463;47.480;8.214;2024-03-07T05:36:39;20.80;38.10
35363;DHT22;21463;47.480;8.214;2024-03-07T05:37:46;20.80;38.10
35363;DHT22;21463;47.480;8.214;2024-03-07T05:38:50;20.80;38.10
35363;DHT22;21463;47.480;8.214;2024-03-07T05:39:52;20.80;38.70
35363;DHT22;21463;47.480;8.214;2024-03-07T05:40:55;20.80;38.10
35363;DHT22;21463;47.480;8.214;2024-03-07T05:41:57;20.80;38.10
35363;DHT22;21463;47.480;8.214;2024-03-07T05:43:01;20.80;38.10
35363;DHT22;21463;47.480;8.214;2024-03-07T05:44:04;20.80;38.10
35363;DHT22;21463;47.480;8.214;2024-03-07T05:45:11;20.80;38.00
35363;DHT22;21463;47.480;8.214;2024-03-07T05:46:14;20.80;38.10
35363;DHT22;21463;47.480;8.214;2024-03-07T05:47:16;20.80;38.10
35363;DHT22;21463;47.480;8.214;2024-03-07T05:48:22;20.80;38.10
35363;DHT22;21463;47.480;8.214;2024-03-07T05:49:25;20.80;38.10
35363;DHT22;21463;47.480;8.214;2024-03-07T05:50:27;20.80;38.10
35363;DHT22;21463;47.480;8.214;2024-03-07T05:51:34;20.90;38.10
35363;DHT22;21463;47.480;8.214;2024-03-07T05:52:37;20.80;38.10
35363;DHT22;21463;47.480;8.214;2024-03-07T05:53:42;20.80;38.10
35363;DHT22;21463;47.480;8.214;2024-03-07T05:54:44;20.80;38.10
35363;DHT22;21463;47.480;8.214;2024-03-07T05:55:47;20.80;38.00
35363;DHT22;21463;47.480;8.214;2024-03-07T05:56:50;20.80;38.10
35363;DHT22;21463;47.480;8.214;2024-03-07T05:57:53;20.80;38.00
35363;DHT22;21463;47.480;8.214;2024-03-07T05:58:55;20.80;38.00
35363;DHT22;21463;47.480;8.214;2024-03-07T05:59:58;20.80;38.00
35363;DHT22;21463;47.480;8.214;2024-03-07T06:01:01;20.80;38.00
35363;DHT22;21463;47.480;8.214;2024-03-07T06:02:04;20.80;38.00
35363;DHT22;21463;47.480;8.214;2024-03-07T06:03:07;20.80;38.10
35363;DHT22;21463;47.480;8.214;2024-03-07T06:04:10;20.80;38.00
35363;DHT22;21463;47.480;8.214;2024-03-07T06:05:13;20.80;38.00
35363;DHT22;21463;47.480;8.214;2024-03-07T06:06:18;20.80;38.00
35363;DHT22;21463;47.480;8.214;2024-03-07T06:07:26;20.80;38.60
35363;DHT22;21463;47.480;8.214;2024-03-07T06:08:28;20.80;38.00
35363;DHT22;21463;47.480;8.214;2024-03-07T06:09:31;20.80;38.00
35363;DHT22;21463;47.480;8.214;2024-03-07T06:10:34;20.80;38.00
35363;DHT22;21463;47.480;8.214;2024-03-07T06:11:38;20.80;38.00
35363;DHT22;21463;47.480;8.214;2024-03-07T06:12:41;20.80;38.00
35363;DHT22;21463;47.480;8.214;2024-03-07T06:14:06;20.80;38.00
35363;DHT22;21463;47.480;8.214;2024-03-07T06:15:09;20.80;38.00
35363;DHT22;21463;47.480;8.214;2024-03-07T06:16:12;20.80;38.00
35363;DHT22;21463;47.480;8.214;2024-03-07T06:17:16;20.80;38.00
35363;DHT22;21463;47.480;8.214;2024-03-07T06:18:24;20.80;38.00
35363;DHT22;21463;47.480;8.214;2024-03-07T06:19:28;20.80;38.00
35363;DHT22;21463;47.480;8.214;2024-03-07T06:20:31;20.80;38.00
35363;DHT22;21463;47.480;8.214;2024-03-07T06:21:35;20.80;38.00
35363;DHT22;21463;47.480;8.214;2024-03-07T06:22:38;20.80;38.00
35363;DHT22;21463;47.480;8.214;2024-03-07T06:23:41;20.80;38.00
35363;DHT22;21463;47.480;8.214;2024-03-07T06:24:45;20.80;38.60
35363;DHT22;21463;47.480;8.214;2024-03-07T06:25:51;20.80;38.00
35363;DHT22;21463;47.480;8.214;2024-03-07T06:26:56;20.80;38.60
35363;DHT22;21463;47.480;8.214;2024-03-07T06:28:05;20.80;38.00
35363;DHT22;21463;47.480;8.214;2024-03-07T06:29:16;20.80;38.00
35363;DHT22;21463;47.480;8.214;2024-03-07T06:30:19;20.80;38.00
35363;DHT22;21463;47.480;8.214;2024-03-07T06:31:22;20.80;38.00
35363;DHT22;21463;47.480;8.214;2024-03-07T06:32:27;20.80;38.00
35363;DHT22;21463;47.480;8.214;2024-03-07T06:33:31;20.80;38.00
35363;DHT22;21463;47.480;8.214;2024-03-07T06:34:33;20.80;38.00
35363;DHT22;21463;47.480;8.214;2024-03-07T06:35:37;20.80;38.00
35363;DHT22;21463;47.480;8.214;2024-03-07T06:36:43;20.70;37.90
35363;DHT22;21463;47.480;8.214;2024-03-07T06:37:46;20.80;38.00
35363;DHT22;21463;47.480;8.214;2024-03-07T06:38:51;20.80;38.00
35363;DHT22;21463;47.480;8.214;2024-03-07T06:39:54;20.80;38.00
35363;DHT22;21463;47.480;8.214;2024-03-07T06:40:56;20.80;38.00
35363;DHT22;21463;47.480;8.214;2024-03-07T06:41:59;20.80;38.00
35363;DHT22;21463;47.480;8.214;2024-03-07T06:43:03;20.90;38.00
35363;DHT22;21463;47.480;8.214;2024-03-07T06:44:07;20.80;38.00